sensor_id;sensor_type;location;lat;lon;timestamp;pressure;altitude;pressure_sealevel;temperature;humidity
15694;BME280;7947;48.834;9.132;2023-02-18T00:02:13;99082.66;;;12.65;73.64
15694;BME280;7947;48.834;9.132;2023-02-18T00:05:37;99079.97;;;12.65;74.01
15694;BME280;7947;48.834;9.132;2023-02-18T00:08:56;99080.78;;;12.65;74.15
15694;BME280;7947;48.834;9.132;2023-02-18T00:12:31;99072.69;;;12.70;74.00
15694;BME280;7947;48.834;9.132;2023-02-18T00:15:46;99080.22;;;12.63;74.48
15694;BME280;7947;48.834;9.132;2023-02-18T00:18:59;99082.38;;;12.61;74.62
15694;BME280;7947;48.834;9.132;2023-02-18T00:22:18;99079.94;;;12.60;74.63
15694;BME280;7947;48.834;9.132;2023-02-18T00:25:27;99082.09;;;12.63;74.82
15694;BME280;7947;48.834;9.132;2023-02-18T00:28:36;99092.88;;;12.68;74.77
15694;BME280;7947;48.834;9.132;2023-02-18T00:31:45;99085.88;;;12.72;74.52
15694;BME280;7947;48.834;9.132;2023-02-18T00:35:11;99085.38;;;12.75;74.60
15694;BME280;7947;48.834;9.132;2023-02-18T00:38:23;99077.81;;;12.72;74.48
15694;BME280;7947;48.834;9.132;2023-02-18T00:41:36;99061.94;;;12.76;74.13
15694;BME280;7947;48.834;9.132;2023-02-18T00:44:47;99048.22;;;12.72;74.46
15694;BME280;7947;48.834;9.132;2023-02-18T00:48:07;99051.97;;;12.66;74.34
15694;BME280;7947;48.834;9.132;2023-02-18T00:51:23;99044.72;;;12.72;74.25
15694;BME280;7947;48.834;9.132;2023-02-18T00:54:45;99036.09;;;12.64;74.37
15694;BME280;7947;48.834;9.132;2023-02-18T00:58:10;99029.88;;;12.64;74.41
15694;BME280;7947;48.834;9.132;2023-02-18T01:01:33;99035.25;;;12.59;74.52
15694;BME280;7947;48.834;9.132;2023-02-18T01:04:56;99035.53;;;12.62;74.32
15694;BME280;7947;48.834;9.132;2023-02-18T01:08:12;99035.53;;;12.62;74.41
15694;BME280;7947;48.834;9.132;2023-02-18T01:11:44;99037.94;;;12.54;74.92
15694;BME280;7947;48.834;9.132;2023-02-18T01:15:10;99043.06;;;12.55;74.94
15694;BME280;7947;48.834;9.132;2023-02-18T01:18:40;99034.44;;;12.53;74.94
15694;BME280;7947;48.834;9.132;2023-02-18T01:21:59;99033.91;;;12.51;75.21
15694;BME280;7947;48.834;9.132;2023-02-18T06:53:07;98969.88;;;11.35;79.98
15694;BME280;7947;48.834;9.132;2023-02-18T06:56:47;98959.19;;;11.40;79.84
15694;BME280;7947;48.834;9.132;2023-02-18T07:00:28;98953.56;;;11.41;79.63
15694;BME280;7947;48.834;9.132;2023-02-18T07:03:55;98967.03;;;11.51;79.78
15694;BME280;7947;48.834;9.132;2023-02-18T07:07:19;98967.06;;;11.56;79.21
15694;BME280;7947;48.834;9.132;2023-02-18T07:10:43;98955.00;;;11.59;79.18
15694;BME280;7947;48.834;9.132;2023-02-18T07:14:05;98950.22;;;11.66;77.77
15694;BME280;7947;48.834;9.132;2023-02-18T07:21:38;98949.78;;;11.84;77.07
15694;BME280;7947;48.834;9.132;2023-02-18T07:35:06;98936.19;;;12.21;74.46
15694;BME280;7947;48.834;9.132;2023-02-18T07:38:36;98934.31;;;12.26;74.38
15694;BME280;7947;48.834;9.132;2023-02-18T07:42:18;98926.25;;;12.21;74.47
15694;BME280;7947;48.834;9.132;2023-02-18T07:45:45;98930.56;;;12.32;73.65
15694;BME280;7947;48.834;9.132;2023-02-18T07:49:18;98924.38;;;12.37;73.45
15694;BME280;7947;48.834;9.132;2023-02-18T07:52:46;98916.59;;;12.45;72.94
15694;BME280;7947;48.834;9.132;2023-02-18T07:56:23;98921.19;;;12.50;72.61
15694;BME280;7947;48.834;9.132;2023-02-18T07:59:50;98916.34;;;12.57;72.25
15694;BME280;7947;48.834;9.132;2023-02-18T08:04:30;98924.94;;;12.64;72.07
15694;BME280;7947;48.834;9.132;2023-02-18T08:37:11;98911.50;;;12.94;70.04
15694;BME280;7947;48.834;9.132;2023-02-18T08:40:46;98910.72;;;13.04;69.39
15694;BME280;7947;48.834;9.132;2023-02-18T08:45:02;98912.84;;;13.07;69.36
15694;BME280;7947;48.834;9.132;2023-02-18T08:49:15;98909.88;;;13.13;68.84
15694;BME280;7947;48.834;9.132;2023-02-18T08:53:46;98906.09;;;13.19;69.29
15694;BME280;7947;48.834;9.132;2023-02-18T08:58:18;98900.16;;;13.27;68.57
15694;BME280;7947;48.834;9.132;2023-02-18T09:02:09;98912.31;;;13.20;69.12
15694;BME280;7947;48.834;9.132;2023-02-18T09:18:59;98893.38;;;13.50;67.92
15694;BME280;7947;48.834;9.132;2023-02-18T09:23:15;98887.13;;;13.59;67.94
15694;BME280;7947;48.834;9.132;2023-02-18T09:27:06;98880.91;;;13.64;67.51
15694;BME280;7947;48.834;9.132;2023-02-18T09:30:53;98878.44;;;13.78;66.27
15694;BME280;7947;48.834;9.132;2023-02-18T09:34:35;98888.84;;;13.94;66.30
15694;BME280;7947;48.834;9.132;2023-02-18T09:38:06;98882.22;;;13.72;66.08
15694;BME280;7947;48.834;9.132;2023-02-18T09:50:48;98870.03;;;13.89;66.13
15694;BME280;7947;48.834;9.132;2023-02-18T09:54:20;98866.69;;;14.02;65.88
15694;BME280;7947;48.834;9.132;2023-02-18T09:57:52;98864.16;;;14.21;64.57
15694;BME280;7947;48.834;9.132;2023-02-18T10:01:27;98870.09;;;14.28;64.48
15694;BME280;7947;48.834;9.132;2023-02-18T10:05:05;98861.03;;;14.48;64.14
15694;BME280;7947;48.834;9.132;2023-02-18T10:09:09;98870.31;;;14.99;62.33
15694;BME280;7947;48.834;9.132;2023-02-18T10:13:03;98871.16;;;15.23;61.69
15694;BME280;7947;48.834;9.132;2023-02-18T10:16:51;98873.66;;;15.43;60.93
15694;BME280;7947;48.834;9.132;2023-02-18T10:20:56;98873.94;;;15.13;60.57
15694;BME280;7947;48.834;9.132;2023-02-18T10:28:32;98873.72;;;15.09;60.64
15694;BME280;7947;48.834;9.132;2023-02-18T10:32:28;98877.94;;;15.20;61.40
15694;BME280;7947;48.834;9.132;2023-02-18T10:36:57;98859.47;;;15.04;60.53
15694;BME280;7947;48.834;9.132;2023-02-18T10:50:31;98848.91;;;14.79;62.07
15694;BME280;7947;48.834;9.132;2023-02-18T10:55:05;98852.34;;;15.13;59.48
15694;BME280;7947;48.834;9.132;2023-02-18T11:00:14;98845.41;;;15.30;59.59
15694;BME280;7947;48.834;9.132;2023-02-18T11:04:36;98841.16;;;15.48;58.97
